sensor_id;sensor_type;location;lat;lon;timestamp;temperature;humidity
50738;DHT22;36703;48.154;17.126;2023-04-24T00:03:43;20.70;46.60
50738;DHT22;36703;48.154;17.126;2023-04-24T00:07:45;20.70;46.50
50738;DHT22;36703;48.154;17.126;2023-04-24T00:11:46;20.70;46.30
50738;DHT22;36703;48.154;17.126;2023-04-24T00:15:48;20.70;46.30
50738;DHT22;36703;48.154;17.126;2023-04-24T00:19:49;20.60;46.40
50738;DHT22;36703;48.154;17.126;2023-04-24T00:23:59;20.60;46.40
50738;DHT22;36703;48.154;17.126;2023-04-24T00:28:01;20.60;46.40
50738;DHT22;36703;48.154;17.126;2023-04-24T00:32:02;20.60;46.30
50738;DHT22;36703;48.154;17.126;2023-04-24T00:36:04;20.70;46.20
50738;DHT22;36703;48.154;17.126;2023-04-24T00:40:06;20.60;46.10
50738;DHT22;36703;48.154;17.126;2023-04-24T00:44:08;20.60;45.90
50738;DHT22;36703;48.154;17.126;2023-04-24T00:48:11;20.60;45.70
50738;DHT22;36703;48.154;17.126;2023-04-24T00:52:13;20.50;45.40
50738;DHT22;36703;48.154;17.126;2023-04-24T00:56:18;20.50;45.40
50738;DHT22;36703;48.154;17.126;2023-04-24T01:00:21;20.40;45.20
50738;DHT22;36703;48.154;17.126;2023-04-24T01:04:24;20.30;45.20
50738;DHT22;36703;48.154;17.126;2023-04-24T01:08:28;20.40;45.10
50738;DHT22;36703;48.154;17.126;2023-04-24T01:12:32;20.40;44.90
50738;DHT22;36703;48.154;17.126;2023-04-24T01:16:34;20.40;44.70
50738;DHT22;36703;48.154;17.126;2023-04-24T01:20:37;20.30;44.60
50738;DHT22;36703;48.154;17.126;2023-04-24T01:24:41;20.30;44.50
50738;DHT22;36703;48.154;17.126;2023-04-24T01:28:44;20.20;44.50
50738;DHT22;36703;48.154;17.126;2023-04-24T01:32:46;20.20;44.50
50738;DHT22;36703;48.154;17.126;2023-04-24T01:36:47;20.20;44.50
50738;DHT22;36703;48.154;17.126;2023-04-24T01:40:50;20.10;44.50
50738;DHT22;36703;48.154;17.126;2023-04-24T01:44:53;20.10;44.60
50738;DHT22;36703;48.154;17.126;2023-04-24T01:48:55;20.10;44.70
50738;DHT22;36703;48.154;17.126;2023-04-24T01:52:57;20.00;44.70
50738;DHT22;36703;48.154;17.126;2023-04-24T01:56:59;20.00;44.80
50738;DHT22;36703;48.154;17.126;2023-04-24T02:01:02;20.00;44.80
50738;DHT22;36703;48.154;17.126;2023-04-24T02:05:06;20.00;44.80
50738;DHT22;36703;48.154;17.126;2023-04-24T02:09:11;20.10;44.80
50738;DHT22;36703;48.154;17.126;2023-04-24T02:13:12;20.00;44.70
50738;DHT22;36703;48.154;17.126;2023-04-24T02:17:14;20.00;44.90
50738;DHT22;36703;48.154;17.126;2023-04-24T02:21:17;19.90;45.00
50738;DHT22;36703;48.154;17.126;2023-04-24T02:25:18;19.90;45.10
50738;DHT22;36703;48.154;17.126;2023-04-24T02:29:21;19.80;45.30
50738;DHT22;36703;48.154;17.126;2023-04-24T02:33:25;19.80;45.30
50738;DHT22;36703;48.154;17.126;2023-04-24T02:37:26;19.80;45.30
50738;DHT22;36703;48.154;17.126;2023-04-24T02:41:28;19.90;45.40
50738;DHT22;36703;48.154;17.126;2023-04-24T02:45:32;19.90;45.30
50738;DHT22;36703;48.154;17.126;2023-04-24T02:49:35;19.90;45.30
50738;DHT22;36703;48.154;17.126;2023-04-24T02:53:37;19.90;45.30
50738;DHT22;36703;48.154;17.126;2023-04-24T02:57:39;19.80;45.40
50738;DHT22;36703;48.154;17.126;2023-04-24T03:01:40;19.80;45.40
50738;DHT22;36703;48.154;17.126;2023-04-24T03:05:42;19.80;45.60
50738;DHT22;36703;48.154;17.126;2023-04-24T03:09:43;19.70;45.60
50738;DHT22;36703;48.154;17.126;2023-04-24T03:13:45;19.70;45.60
50738;DHT22;36703;48.154;17.126;2023-04-24T03:17:47;19.70;45.70
50738;DHT22;36703;48.154;17.126;2023-04-24T03:21:49;19.70;45.80
50738;DHT22;36703;48.154;17.126;2023-04-24T03:25:51;19.80;45.70
50738;DHT22;36703;48.154;17.126;2023-04-24T03:29:54;19.80;45.60
50738;DHT22;36703;48.154;17.126;2023-04-24T03:34:00;19.80;45.60
50738;DHT22;36703;48.154;17.126;2023-04-24T03:38:02;19.80;45.60
50738;DHT22;36703;48.154;17.126;2023-04-24T03:42:26;19.80;45.60
50738;DHT22;36703;48.154;17.126;2023-04-24T03:46:30;19.70;45.80
50738;DHT22;36703;48.154;17.126;2023-04-24T03:50:34;19.60;45.90
50738;DHT22;36703;48.154;17.126;2023-04-24T03:54:36;19.60;46.00
50738;DHT22;36703;48.154;17.126;2023-04-24T03:58:40;19.60;45.90
50738;DHT22;36703;48.154;17.126;2023-04-24T04:02:42;19.60;45.90
50738;DHT22;36703;48.154;17.126;2023-04-24T04:06:44;19.60;45.90
50738;DHT22;36703;48.154;17.126;2023-04-24T04:10:48;19.60;45.80
50738;DHT22;36703;48.154;17.126;2023-04-24T04:14:50;19.60;45.40
50738;DHT22;36703;48.154;17.126;2023-04-24T04:18:51;19.60;45.70
50738;DHT22;36703;48.154;17.126;2023-04-24T04:22:53;19.60;45.70
50738;DHT22;36703;48.154;17.126;2023-04-24T04:27:04;19.60;45.60
50738;DHT22;36703;48.154;17.126;2023-04-24T04:31:11;19.60;45.50
50738;DHT22;36703;48.154;17.126;2023-04-24T04:35:14;19.70;45.50
50738;DHT22;36703;48.154;17.126;2023-04-24T04:39:16;19.70;45.40
50738;DHT22;36703;48.154;17.126;2023-04-24T04:43:27;19.70;45.40
50738;DHT22;36703;48.154;17.126;2023-04-24T04:47:29;19.70;45.40
50738;DHT22;36703;48.154;17.126;2023-04-24T04:51:34;19.70;45.30
50738;DHT22;36703;48.154;17.126;2023-04-24T04:55:37;19.80;45.30
50738;DHT22;36703;48.154;17.126;2023-04-24T04:59:45;19.80;45.30
50738;DHT22;36703;48.154;17.126;2023-04-24T05:03:55;19.80;45.40
50738;DHT22;36703;48.154;17.126;2023-04-24T05:07:56;19.80;45.40
50738;DHT22;36703;48.154;17.126;2023-04-24T05:11:59;19.80;45.30
50738;DHT22;36703;48.154;17.126;2023-04-24T05:16:02;19.80;45.30
50738;DHT22;36703;48.154;17.126;2023-04-24T05:20:06;19.80;45.30
50738;DHT22;36703;48.154;17.126;2023-04-24T05:24:09;19.80;45.10
50738;DHT22;36703;48.154;17.126;2023-04-24T05:28:29;19.70;45.20
50738;DHT22;36703;48.154;17.126;2023-04-24T05:32:40;19.70;45.30
50738;DHT22;36703;48.154;17.126;2023-04-24T05:36:42;19.80;45.30
50738;DHT22;36703;48.154;17.126;2023-04-24T05:40:44;19.80;45.10
50738;DHT22;36703;48.154;17.126;2023-04-24T05:44:45;19.80;45.00
50738;DHT22;36703;48.154;17.126;2023-04-24T05:48:47;19.90;45.10
50738;DHT22;36703;48.154;17.126;2023-04-24T05:52:49;19.80;45.10
50738;DHT22;36703;48.154;17.126;2023-04-24T05:57:00;19.90;45.00
50738;DHT22;36703;48.154;17.126;2023-04-24T06:01:17;19.90;45.00
50738;DHT22;36703;48.154;17.126;2023-04-24T06:05:24;19.90;44.90
50738;DHT22;36703;48.154;17.126;2023-04-24T06:09:28;20.00;44.80
50738;DHT22;36703;48.154;17.126;2023-04-24T06:13:29;20.00;44.70
50738;DHT22;36703;48.154;17.126;2023-04-24T06:17:51;20.10;44.60
50738;DHT22;36703;48.154;17.126;2023-04-24T06:21:54;20.10;44.40
50738;DHT22;36703;48.154;17.126;2023-04-24T06:25:55;20.10;44.40
50738;DHT22;36703;48.154;17.126;2023-04-24T06:29:57;20.10;45.10
50738;DHT22;36703;48.154;17.126;2023-04-24T06:33:59;20.20;44.50
50738;DHT22;36703;48.154;17.126;2023-04-24T06:38:01;20.30;44.40
50738;DHT22;36703;48.154;17.126;2023-04-24T06:42:02;20.30;44.40
50738;DHT22;36703;48.154;17.126;2023-04-24T06:46:07;20.40;44.40
50738;DHT22;36703;48.154;17.126;2023-04-24T06:50:09;20.50;44.60
50738;DHT22;36703;48.154;17.126;2023-04-24T06:54:11;20.60;44.70
50738;DHT22;36703;48.154;17.126;2023-04-24T06:58:13;20.60;44.90
50738;DHT22;36703;48.154;17.126;2023-04-24T07:02:15;20.60;45.00
50738;DHT22;36703;48.154;17.126;2023-04-24T07:06:17;20.60;45.10
50738;DHT22;36703;48.154;17.126;2023-04-24T07:10:19;20.60;45.20
50738;DHT22;36703;48.154;17.126;2023-04-24T07:14:22;20.70;45.30
50738;DHT22;36703;48.154;17.126;2023-04-24T07:18:24;20.70;45.30
50738;DHT22;36703;48.154;17.126;2023-04-24T07:22:25;20.70;45.30
50738;DHT22;36703;48.154;17.126;2023-04-24T07:26:29;20.80;45.30
50738;DHT22;36703;48.154;17.126;2023-04-24T07:30:31;20.80;45.30
50738;DHT22;36703;48.154;17.126;2023-04-24T07:34:34;20.90;45.40
50738;DHT22;36703;48.154;17.126;2023-04-24T07:38:36;20.90;45.50
50738;DHT22;36703;48.154;17.126;2023-04-24T07:42:37;21.00;45.50
50738;DHT22;36703;48.154;17.126;2023-04-24T07:46:40;21.20;45.40
50738;DHT22;36703;48.154;17.126;2023-04-24T07:50:42;21.30;45.40
50738;DHT22;36703;48.154;17.126;2023-04-24T07:54:43;21.20;45.40
50738;DHT22;36703;48.154;17.126;2023-04-24T07:58:45;21.20;46.20
50738;DHT22;36703;48.154;17.126;2023-04-24T08:02:46;21.30;45.60
50738;DHT22;36703;48.154;17.126;2023-04-24T08:06:48;21.40;45.60
50738;DHT22;36703;48.154;17.126;2023-04-24T08:10:50;21.30;46.00
50738;DHT22;36703;48.154;17.126;2023-04-24T08:14:52;21.20;45.50
50738;DHT22;36703;48.154;17.126;2023-04-24T08:18:53;21.20;45.60
50738;DHT22;36703;48.154;17.126;2023-04-24T08:22:55;21.10;45.70
50738;DHT22;36703;48.154;17.126;2023-04-24T08:26:57;21.00;45.80
50738;DHT22;36703;48.154;17.126;2023-04-24T08:30:59;21.00;45.90
50738;DHT22;36703;48.154;17.126;2023-04-24T08:35:00;21.00;46.00
50738;DHT22;36703;48.154;17.126;2023-04-24T08:39:02;21.20;45.90
50738;DHT22;36703;48.154;17.126;2023-04-24T08:43:04;21.30;45.60
50738;DHT22;36703;48.154;17.126;2023-04-24T08:47:07;21.20;45.40
50738;DHT22;36703;48.154;17.126;2023-04-24T08:51:09;21.20;45.60
50738;DHT22;36703;48.154;17.126;2023-04-24T08:55:11;21.20;45.50
50738;DHT22;36703;48.154;17.126;2023-04-24T08:59:14;21.30;45.50
50738;DHT22;36703;48.154;17.126;2023-04-24T09:03:17;21.30;45.50
50738;DHT22;36703;48.154;17.126;2023-04-24T09:07:20;21.40;45.50
50738;DHT22;36703;48.154;17.126;2023-04-24T09:11:24;21.30;45.60
50738;DHT22;36703;48.154;17.126;2023-04-24T09:15:26;21.20;45.60
50738;DHT22;36703;48.154;17.126;2023-04-24T09:19:28;21.20;45.70
50738;DHT22;36703;48.154;17.126;2023-04-24T09:23:30;21.10;45.60
50738;DHT22;36703;48.154;17.126;2023-04-24T09:27:33;21.00;45.60
50738;DHT22;36703;48.154;17.126;2023-04-24T09:31:35;21.00;45.50
50738;DHT22;36703;48.154;17.126;2023-04-24T09:35:39;21.00;45.40
50738;DHT22;36703;48.154;17.126;2023-04-24T09:39:41;20.90;45.30
50738;DHT22;36703;48.154;17.126;2023-04-24T09:43:43;21.00;45.40
50738;DHT22;36703;48.154;17.126;2023-04-24T09:47:45;21.00;45.40
50738;DHT22;36703;48.154;17.126;2023-04-24T09:51:46;21.00;45.40
50738;DHT22;36703;48.154;17.126;2023-04-24T09:55:48;21.00;45.50
50738;DHT22;36703;48.154;17.126;2023-04-24T09:59:53;20.90;45.50
50738;DHT22;36703;48.154;17.126;2023-04-24T10:03:54;20.90;45.60
50738;DHT22;36703;48.154;17.126;2023-04-24T10:07:57;20.80;45.60
50738;DHT22;36703;48.154;17.126;2023-04-24T10:12:01;20.80;45.70
50738;DHT22;36703;48.154;17.126;2023-04-24T10:16:03;20.80;45.70
50738;DHT22;36703;48.154;17.126;2023-04-24T10:20:06;20.70;46.00
50738;DHT22;36703;48.154;17.126;2023-04-24T10:24:18;20.50;46.30
50738;DHT22;36703;48.154;17.126;2023-04-24T10:28:22;20.20;47.20
50738;DHT22;36703;48.154;17.126;2023-04-24T10:32:25;19.90;47.80
50738;DHT22;36703;48.154;17.126;2023-04-24T10:36:28;19.90;48.10
50738;DHT22;36703;48.154;17.126;2023-04-24T10:40:35;19.90;48.30
50738;DHT22;36703;48.154;17.126;2023-04-24T10:44:37;19.90;48.50
50738;DHT22;36703;48.154;17.126;2023-04-24T10:48:42;19.90;48.50
50738;DHT22;36703;48.154;17.126;2023-04-24T10:52:47;20.00;48.60
50738;DHT22;36703;48.154;17.126;2023-04-24T10:56:51;19.90;48.70
50738;DHT22;36703;48.154;17.126;2023-04-24T11:00:57;20.00;48.80
50738;DHT22;36703;48.154;17.126;2023-04-24T11:05:03;20.10;48.80
50738;DHT22;36703;48.154;17.126;2023-04-24T11:09:10;20.20;48.60
50738;DHT22;36703;48.154;17.126;2023-04-24T11:13:15;20.10;48.60
50738;DHT22;36703;48.154;17.126;2023-04-24T11:17:32;20.00;48.70
50738;DHT22;36703;48.154;17.126;2023-04-24T11:21:44;20.10;48.70
50738;DHT22;36703;48.154;17.126;2023-04-24T11:26:17;20.20;48.60
50738;DHT22;36703;48.154;17.126;2023-04-24T11:30:20;20.10;48.70
50738;DHT22;36703;48.154;17.126;2023-04-24T11:34:21;19.90;48.80
50738;DHT22;36703;48.154;17.126;2023-04-24T11:38:24;19.90;49.10
50738;DHT22;36703;48.154;17.126;2023-04-24T11:42:28;19.90;49.20
50738;DHT22;36703;48.154;17.126;2023-04-24T11:46:30;19.90;49.50
50738;DHT22;36703;48.154;17.126;2023-04-24T11:50:33;19.90;49.70
50738;DHT22;36703;48.154;17.126;2023-04-24T11:54:34;19.90;50.00
50738;DHT22;36703;48.154;17.126;2023-04-24T11:58:39;20.10;50.20
50738;DHT22;36703;48.154;17.126;2023-04-24T12:02:41;20.00;50.30
50738;DHT22;36703;48.154;17.126;2023-04-24T12:07:02;19.90;50.50
50738;DHT22;36703;48.154;17.126;2023-04-24T12:11:06;19.90;50.60
50738;DHT22;36703;48.154;17.126;2023-04-24T12:15:08;19.90;50.70
50738;DHT22;36703;48.154;17.126;2023-04-24T12:19:10;19.90;50.70
50738;DHT22;36703;48.154;17.126;2023-04-24T12:23:12;19.90;50.70
50738;DHT22;36703;48.154;17.126;2023-04-24T12:27:19;20.00;50.70
50738;DHT22;36703;48.154;17.126;2023-04-24T12:31:21;19.90;50.60
50738;DHT22;36703;48.154;17.126;2023-04-24T12:35:25;19.80;50.80
50738;DHT22;36703;48.154;17.126;2023-04-24T12:39:27;19.80;50.80
50738;DHT22;36703;48.154;17.126;2023-04-24T12:43:29;19.80;50.90
50738;DHT22;36703;48.154;17.126;2023-04-24T12:47:32;19.70;50.90
50738;DHT22;36703;48.154;17.126;2023-04-24T12:51:34;19.80;51.00
50738;DHT22;36703;48.154;17.126;2023-04-24T12:55:36;19.70;51.10
50738;DHT22;36703;48.154;17.126;2023-04-24T12:59:38;19.70;51.00
50738;DHT22;36703;48.154;17.126;2023-04-24T13:03:40;19.70;51.00
50738;DHT22;36703;48.154;17.126;2023-04-24T13:07:41;19.70;50.80
50738;DHT22;36703;48.154;17.126;2023-04-24T13:11:43;19.60;50.70
50738;DHT22;36703;48.154;17.126;2023-04-24T13:15:45;19.60;50.50
50738;DHT22;36703;48.154;17.126;2023-04-24T13:19:46;19.60;50.40
50738;DHT22;36703;48.154;17.126;2023-04-24T13:23:50;19.50;50.30
50738;DHT22;36703;48.154;17.126;2023-04-24T13:27:52;19.50;50.30
50738;DHT22;36703;48.154;17.126;2023-04-24T13:31:55;19.40;50.20
50738;DHT22;36703;48.154;17.126;2023-04-24T13:35:57;19.40;50.30
50738;DHT22;36703;48.154;17.126;2023-04-24T13:39:58;19.40;50.50
50738;DHT22;36703;48.154;17.126;2023-04-24T13:44:00;19.40;50.60
50738;DHT22;36703;48.154;17.126;2023-04-24T13:48:02;19.30;50.80
50738;DHT22;36703;48.154;17.126;2023-04-24T13:52:04;19.30;50.90
50738;DHT22;36703;48.154;17.126;2023-04-24T13:56:05;19.30;50.80
50738;DHT22;36703;48.154;17.126;2023-04-24T14:00:08;19.30;50.70
50738;DHT22;36703;48.154;17.126;2023-04-24T14:04:11;19.40;50.60
50738;DHT22;36703;48.154;17.126;2023-04-24T14:08:13;19.40;50.50
50738;DHT22;36703;48.154;17.126;2023-04-24T14:12:14;19.60;50.40
50738;DHT22;36703;48.154;17.126;2023-04-24T14:16:18;19.50;50.20
50738;DHT22;36703;48.154;17.126;2023-04-24T14:20:20;19.40;50.20
50738;DHT22;36703;48.154;17.126;2023-04-24T14:24:21;19.30;50.20
50738;DHT22;36703;48.154;17.126;2023-04-24T14:28:23;19.30;50.10
50738;DHT22;36703;48.154;17.126;2023-04-24T14:32:25;19.30;50.00
50738;DHT22;36703;48.154;17.126;2023-04-24T14:36:27;19.20;49.80
50738;DHT22;36703;48.154;17.126;2023-04-24T14:40:28;19.30;49.60
50738;DHT22;36703;48.154;17.126;2023-04-24T14:44:30;19.20;49.30
50738;DHT22;36703;48.154;17.126;2023-04-24T14:48:31;19.20;49.10
50738;DHT22;36703;48.154;17.126;2023-04-24T14:52:33;19.20;48.90
50738;DHT22;36703;48.154;17.126;2023-04-24T14:56:34;19.10;48.70
50738;DHT22;36703;48.154;17.126;2023-04-24T15:00:36;19.00;48.70
50738;DHT22;36703;48.154;17.126;2023-04-24T15:04:38;19.00;48.90
50738;DHT22;36703;48.154;17.126;2023-04-24T15:08:39;18.90;48.80
50738;DHT22;36703;48.154;17.126;2023-04-24T15:12:41;18.90;48.90
50738;DHT22;36703;48.154;17.126;2023-04-24T15:16:43;18.90;49.00
50738;DHT22;36703;48.154;17.126;2023-04-24T15:20:44;18.90;49.10
50738;DHT22;36703;48.154;17.126;2023-04-24T15:24:46;18.90;49.20
50738;DHT22;36703;48.154;17.126;2023-04-24T15:28:48;18.90;49.30
50738;DHT22;36703;48.154;17.126;2023-04-24T15:32:50;18.90;49.30
50738;DHT22;36703;48.154;17.126;2023-04-24T15:36:52;18.90;49.50
50738;DHT22;36703;48.154;17.126;2023-04-24T15:40:53;18.80;49.40
50738;DHT22;36703;48.154;17.126;2023-04-24T15:44:55;18.80;49.60
50738;DHT22;36703;48.154;17.126;2023-04-24T15:48:56;18.80;49.70
50738;DHT22;36703;48.154;17.126;2023-04-24T15:52:58;18.70;49.90
50738;DHT22;36703;48.154;17.126;2023-04-24T15:56:59;18.70;50.00
50738;DHT22;36703;48.154;17.126;2023-04-24T16:01:02;18.70;50.20
50738;DHT22;36703;48.154;17.126;2023-04-24T16:05:03;18.80;50.20
50738;DHT22;36703;48.154;17.126;2023-04-24T16:09:08;18.80;50.10
50738;DHT22;36703;48.154;17.126;2023-04-24T16:13:10;18.90;50.00
50738;DHT22;36703;48.154;17.126;2023-04-24T16:17:11;18.80;50.00
50738;DHT22;36703;48.154;17.126;2023-04-24T16:21:13;18.70;50.20
50738;DHT22;36703;48.154;17.126;2023-04-24T16:25:15;18.70;50.30
50738;DHT22;36703;48.154;17.126;2023-04-24T16:29:16;18.80;50.50
50738;DHT22;36703;48.154;17.126;2023-04-24T16:33:18;18.80;50.50
50738;DHT22;36703;48.154;17.126;2023-04-24T16:37:20;18.80;50.60
50738;DHT22;36703;48.154;17.126;2023-04-24T16:41:21;18.80;50.60
50738;DHT22;36703;48.154;17.126;2023-04-24T16:45:23;18.80;50.80
50738;DHT22;36703;48.154;17.126;2023-04-24T16:49:24;18.80;50.80
50738;DHT22;36703;48.154;17.126;2023-04-24T16:53:31;18.80;50.90
50738;DHT22;36703;48.154;17.126;2023-04-24T16:57:32;18.90;51.00
50738;DHT22;36703;48.154;17.126;2023-04-24T17:01:34;18.80;50.90
50738;DHT22;36703;48.154;17.126;2023-04-24T17:05:36;18.80;51.10
50738;DHT22;36703;48.154;17.126;2023-04-24T17:09:37;18.80;51.20
50738;DHT22;36703;48.154;17.126;2023-04-24T17:13:39;18.80;51.40
50738;DHT22;36703;48.154;17.126;2023-04-24T17:17:41;18.90;51.60
50738;DHT22;36703;48.154;17.126;2023-04-24T17:21:44;19.00;51.80
50738;DHT22;36703;48.154;17.126;2023-04-24T17:25:46;18.80;51.90
50738;DHT22;36703;48.154;17.126;2023-04-24T17:29:48;18.70;52.10
50738;DHT22;36703;48.154;17.126;2023-04-24T17:33:50;18.70;52.10
50738;DHT22;36703;48.154;17.126;2023-04-24T17:37:51;18.70;52.10
50738;DHT22;36703;48.154;17.126;2023-04-24T17:41:53;18.70;52.10
50738;DHT22;36703;48.154;17.126;2023-04-24T17:45:54;18.70;51.80
50738;DHT22;36703;48.154;17.126;2023-04-24T17:49:56;18.70;51.70
50738;DHT22;36703;48.154;17.126;2023-04-24T17:53:58;18.70;51.50
50738;DHT22;36703;48.154;17.126;2023-04-24T17:58:00;18.70;51.60
50738;DHT22;36703;48.154;17.126;2023-04-24T18:02:04;18.70;51.50
50738;DHT22;36703;48.154;17.126;2023-04-24T18:06:06;18.70;51.50
50738;DHT22;36703;48.154;17.126;2023-04-24T18:10:08;18.70;51.30
50738;DHT22;36703;48.154;17.126;2023-04-24T18:14:09;18.60;51.50
50738;DHT22;36703;48.154;17.126;2023-04-24T18:18:11;18.70;51.60
50738;DHT22;36703;48.154;17.126;2023-04-24T18:22:13;18.60;51.50
50738;DHT22;36703;48.154;17.126;2023-04-24T18:26:14;18.60;51.60
50738;DHT22;36703;48.154;17.126;2023-04-24T18:30:17;18.50;51.80
50738;DHT22;36703;48.154;17.126;2023-04-24T18:34:18;18.50;52.00
50738;DHT22;36703;48.154;17.126;2023-04-24T18:38:20;18.40;52.00
50738;DHT22;36703;48.154;17.126;2023-04-24T18:42:22;18.40;52.10
50738;DHT22;36703;48.154;17.126;2023-04-24T18:46:24;18.30;52.40
50738;DHT22;36703;48.154;17.126;2023-04-24T18:50:27;18.30;52.50
50738;DHT22;36703;48.154;17.126;2023-04-24T18:54:31;18.20;52.50
50738;DHT22;36703;48.154;17.126;2023-04-24T18:58:33;18.10;52.60
50738;DHT22;36703;48.154;17.126;2023-04-24T19:02:35;18.00;52.60
50738;DHT22;36703;48.154;17.126;2023-04-24T19:06:36;17.90;52.60
50738;DHT22;36703;48.154;17.126;2023-04-24T19:10:38;17.90;52.80
50738;DHT22;36703;48.154;17.126;2023-04-24T19:14:39;17.90;52.80
50738;DHT22;36703;48.154;17.126;2023-04-24T19:18:41;17.90;52.80
50738;DHT22;36703;48.154;17.126;2023-04-24T19:22:43;17.90;52.60
50738;DHT22;36703;48.154;17.126;2023-04-24T19:26:44;18.00;52.70
50738;DHT22;36703;48.154;17.126;2023-04-24T19:30:46;17.90;52.80
50738;DHT22;36703;48.154;17.126;2023-04-24T19:34:49;17.90;52.80
50738;DHT22;36703;48.154;17.126;2023-04-24T19:38:50;17.80;52.90
50738;DHT22;36703;48.154;17.126;2023-04-24T19:42:52;17.80;52.90
50738;DHT22;36703;48.154;17.126;2023-04-24T19:46:53;17.70;53.10
50738;DHT22;36703;48.154;17.126;2023-04-24T19:50:58;17.70;53.10
50738;DHT22;36703;48.154;17.126;2023-04-24T19:55:00;17.80;53.10
50738;DHT22;36703;48.154;17.126;2023-04-24T19:59:02;17.70;53.20
50738;DHT22;36703;48.154;17.126;2023-04-24T20:03:04;17.70;53.30
50738;DHT22;36703;48.154;17.126;2023-04-24T20:07:05;17.70;70.80
50738;DHT22;36703;48.154;17.126;2023-04-24T20:11:08;17.70;55.80
50738;DHT22;36703;48.154;17.126;2023-04-24T20:15:10;17.70;55.70
50738;DHT22;36703;48.154;17.126;2023-04-24T20:19:11;17.70;55.30
50738;DHT22;36703;48.154;17.126;2023-04-24T20:23:13;18.10;54.30
50738;DHT22;36703;48.154;17.126;2023-04-24T20:27:15;17.60;54.50
50738;DHT22;36703;48.154;17.126;2023-04-24T20:31:17;17.60;61.50
50738;DHT22;36703;48.154;17.126;2023-04-24T20:35:19;18.10;59.50
50738;DHT22;36703;48.154;17.126;2023-04-24T20:39:21;17.60;59.40
50738;DHT22;36703;48.154;17.126;2023-04-24T20:43:23;17.60;59.00
50738;DHT22;36703;48.154;17.126;2023-04-24T20:47:27;17.70;58.60
50738;DHT22;36703;48.154;17.126;2023-04-24T20:51:28;17.70;58.60
50738;DHT22;36703;48.154;17.126;2023-04-24T20:55:30;17.80;58.30
50738;DHT22;36703;48.154;17.126;2023-04-24T20:59:32;17.70;58.30
50738;DHT22;36703;48.154;17.126;2023-04-24T21:03:34;17.70;58.10
50738;DHT22;36703;48.154;17.126;2023-04-24T21:07:36;17.70;58.00
50738;DHT22;36703;48.154;17.126;2023-04-24T21:11:37;17.70;57.80
50738;DHT22;36703;48.154;17.126;2023-04-24T21:15:39;18.10;58.20
50738;DHT22;36703;48.154;17.126;2023-04-24T21:19:40;17.70;57.70
50738;DHT22;36703;48.154;17.126;2023-04-24T21:23:42;17.70;57.50
50738;DHT22;36703;48.154;17.126;2023-04-24T21:27:43;17.70;57.50
50738;DHT22;36703;48.154;17.126;2023-04-24T21:31:45;18.10;57.50
50738;DHT22;36703;48.154;17.126;2023-04-24T21:35:47;17.80;57.20
50738;DHT22;36703;48.154;17.126;2023-04-24T21:39:48;17.80;56.90
50738;DHT22;36703;48.154;17.126;2023-04-24T21:43:50;17.80;56.60
50738;DHT22;36703;48.154;17.126;2023-04-24T21:47:51;17.70;56.40
50738;DHT22;36703;48.154;17.126;2023-04-24T21:51:53;17.60;56.60
50738;DHT22;36703;48.154;17.126;2023-04-24T21:55:54;17.50;57.30
50738;DHT22;36703;48.154;17.126;2023-04-24T21:59:56;17.50;57.70
50738;DHT22;36703;48.154;17.126;2023-04-24T22:03:58;17.50;58.20
50738;DHT22;36703;48.154;17.126;2023-04-24T22:07:59;17.50;57.70
50738;DHT22;36703;48.154;17.126;2023-04-24T22:12:01;17.40;57.70
50738;DHT22;36703;48.154;17.126;2023-04-24T22:16:05;17.30;51.50
50738;DHT22;36703;48.154;17.126;2023-04-24T22:20:07;17.30;51.40
50738;DHT22;36703;48.154;17.126;2023-04-24T22:24:08;17.40;51.40
50738;DHT22;36703;48.154;17.126;2023-04-24T22:28:10;17.30;51.30
50738;DHT22;36703;48.154;17.126;2023-04-24T22:32:11;17.30;51.30
50738;DHT22;36703;48.154;17.126;2023-04-24T22:36:13;17.20;51.30
50738;DHT22;36703;48.154;17.126;2023-04-24T22:40:15;17.20;51.30
50738;DHT22;36703;48.154;17.126;2023-04-24T22:44:16;17.10;51.30
50738;DHT22;36703;48.154;17.126;2023-04-24T22:48:18;17.10;51.30
50738;DHT22;36703;48.154;17.126;2023-04-24T22:52:19;17.10;51.30
50738;DHT22;36703;48.154;17.126;2023-04-24T22:56:21;17.10;51.30
50738;DHT22;36703;48.154;17.126;2023-04-24T23:00:23;17.00;51.20
50738;DHT22;36703;48.154;17.126;2023-04-24T23:04:25;17.00;51.10
50738;DHT22;36703;48.154;17.126;2023-04-24T23:08:26;17.00;51.10
50738;DHT22;36703;48.154;17.126;2023-04-24T23:12:28;16.90;51.10
50738;DHT22;36703;48.154;17.126;2023-04-24T23:16:30;17.00;51.10
50738;DHT22;36703;48.154;17.126;2023-04-24T23:20:32;16.90;51.00
50738;DHT22;36703;48.154;17.126;2023-04-24T23:24:33;16.80;51.00
50738;DHT22;36703;48.154;17.126;2023-04-24T23:28:35;16.80;51.00
50738;DHT22;36703;48.154;17.126;2023-04-24T23:32:37;16.60;51.00
50738;DHT22;36703;48.154;17.126;2023-04-24T23:36:39;16.80;51.10
50738;DHT22;36703;48.154;17.126;2023-04-24T23:40:40;16.90;51.20
50738;DHT22;36703;48.154;17.126;2023-04-24T23:44:42;16.80;51.20
50738;DHT22;36703;48.154;17.126;2023-04-24T23:48:44;16.80;51.20
50738;DHT22;36703;48.154;17.126;2023-04-24T23:52:45;16.80;51.10
50738;DHT22;36703;48.154;17.126;2023-04-24T23:56:47;16.70;51.00
